Time;durP1;ratioP1;P1;durP2;ratioP2;P2;SDS_P1;SDS_P2;PMS_P1;PMS_P2;Temp;Humidity;BMP_temperature;BMP_pressure;BME280_temperature;BME280_humidity;BME280_pressure;Samples;Min_cycle;Max_cycle;Signal;HPM_P1;HPM_P2
2022/11/30 00:02:06;;;;;;;12.80;10.65;;;;;;;7.44;78.38;99736.09;5048297;28;20025;-81
2022/11/30 00:04:32;;;;;;;14.43;11.85;;;;;;;7.58;78.37;99801.22;5053420;28;20092;-81
2022/11/30 00:06:57;;;;;;;18.15;13.80;;;;;;;7.53;78.90;99749.16;5035339;28;20021;-81
2022/11/30 00:09:23;;;;;;;16.05;13.05;;;;;;;7.61;78.46;99775.47;5062961;28;20055;-81
2022/11/30 00:11:48;;;;;;;17.45;14.02;;;;;;;7.90;78.38;99803.28;5050934;28;20032;-81
2022/11/30 00:14:14;;;;;;;18.48;15.30;;;;;;;7.48;78.72;99738.28;5052409;28;20501;-81
2022/11/30 00:16:39;;;;;;;21.08;15.60;;;;;;;7.67;78.96;99767.97;5052540;28;20099;-80
2022/11/30 00:19:05;;;;;;;22.50;16.80;;;;;;;7.86;78.60;99799.28;5052332;28;20146;-80
2022/11/30 00:21:30;;;;;;;22.40;17.02;;;;;;;7.94;78.86;99796.72;5052323;28;20094;-81
2022/11/30 00:23:56;;;;;;;20.10;15.27;;;;;;;7.64;78.59;99745.44;5050900;28;20082;-81
2022/11/30 00:26:21;;;;;;;18.38;15.05;;;;;;;7.78;78.44;99767.69;5052099;28;20545;-81
2022/11/30 00:28:47;;;;;;;23.25;16.73;;;;;;;7.81;78.78;99786.63;5050846;28;20398;-80
2022/11/30 00:31:15;;;;;;;25.42;18.58;;;;;;;8.33;78.54;99852.41;5050819;28;20021;-80
2022/11/30 00:33:41;;;;;;;24.05;18.30;;;;;;;7.46;78.95;99708.69;5050689;28;20028;-80
2022/11/30 00:36:15;;;;;;;27.98;21.35;;;;;;;7.97;78.54;99799.88;5051960;28;20021;-80
2022/11/30 00:38:40;;;;;;;32.03;24.02;;;;;;;8.09;78.92;99816.19;5051836;28;20013;-80
2022/11/30 00:41:06;;;;;;;28.98;22.48;;;;;;;8.39;78.44;99853.59;5051921;28;20025;-80
2022/11/30 00:43:32;;;;;;;27.48;21.60;;;;;;;7.56;78.65;99712.06;5067160;28;20595;-80
2022/11/30 00:45:57;;;;;;;27.75;22.10;;;;;;;7.68;78.35;99722.31;5050791;28;20029;-80
2022/11/30 00:48:23;;;;;;;21.73;16.33;;;;;;;8.01;79.05;99787.22;5050570;28;20025;-80
2022/11/30 00:50:49;;;;;;;17.42;14.68;;;;;;;7.73;78.71;99743.69;5051972;28;20075;-80
2022/11/30 00:53:15;;;;;;;17.05;13.80;;;;;;;8.32;78.60;99839.38;5050398;28;20023;-80
2022/11/30 00:55:42;;;;;;;11.63;10.00;;;;;;;7.52;78.78;99704.63;5051628;28;20084;-80
2022/11/30 00:58:08;;;;;;;9.48;8.48;;;;;;;8.28;78.70;99833.59;5051657;28;20025;-80
2022/11/30 01:00:34;;;;;;;9.35;7.00;;;;;;;8.44;78.63;99843.41;5050230;28;20104;-80
2022/11/30 01:02:59;;;;;;;9.27;6.90;;;;;;;7.89;78.66;99746.41;5051494;28;20025;-80
2022/11/30 01:05:25;;;;;;;7.32;6.50;;;;;;;8.11;78.29;99793.19;5050151;28;20020;-80
2022/11/30 01:07:50;;;;;;;7.20;6.45;;;;;;;7.62;78.26;99723.75;5051253;28;20508;-80
2022/11/30 01:10:16;;;;;;;6.57;5.97;;;;;;;7.76;78.22;99709.22;5051363;28;20025;-80
2022/11/30 01:12:42;;;;;;;8.40;6.03;;;;;;;8.32;78.34;99802.53;5051508;28;20077;-80
2022/11/30 01:15:08;;;;;;;7.30;5.38;;;;;;;8.57;78.38;99838.53;5033476;28;20025;-80
2022/11/30 01:17:33;;;;;;;8.50;6.20;;;;;;;8.45;78.25;99814.31;5033537;28;20025;-80
2022/11/30 01:19:59;;;;;;;6.22;5.43;;;;;;;8.39;78.34;99816.75;5033445;28;20032;-80
2022/11/30 01:22:24;;;;;;;8.15;5.78;;;;;;;8.08;78.23;99761.97;5051375;28;20020;-80
2022/11/30 01:24:50;;;;;;;9.50;6.45;;;;;;;8.59;78.10;99852.38;5051283;28;20111;-80
2022/11/30 01:27:15;;;;;;;8.75;7.13;;;;;;;8.28;78.51;99781.81;5050997;28;20417;-80
2022/11/30 01:29:40;;;;;;;11.30;7.43;;;;;;;7.84;78.20;99709.25;5050977;28;20025;-80
2022/11/30 01:32:06;;;;;;;5.85;4.80;;;;;;;7.74;78.26;99719.06;5050939;28;20017;-80
2022/11/30 01:34:31;;;;;;;6.10;5.50;;;;;;;8.12;78.52;99767.72;5050987;28;20428;-80
2022/11/30 01:36:57;;;;;;;7.50;5.03;;;;;;;7.99;78.13;99757.63;5050860;28;20017;-80
2022/11/30 01:39:22;;;;;;;6.28;5.18;;;;;;;8.21;78.13;99785.22;5050974;28;20035;-80
2022/11/30 01:41:47;;;;;;;5.72;4.90;;;;;;;7.81;78.06;99715.66;5051105;28;20055;-80
2022/11/30 01:44:13;;;;;;;5.93;5.22;;;;;;;8.62;78.06;99838.06;5051052;28;20029;-80
2022/11/30 01:46:55;;;;;;;5.60;4.80;;;;;;;8.01;78.31;99758.31;5050919;28;20032;-79
2022/11/30 01:49:32;;;;;;;;;;;;;;;8.48;77.99;99831.59;5051370;28;20387;-80
2022/11/30 01:52:04;;;;;;;5.07;4.22;;;;;;;8.55;78.04;99838.69;5050751;28;19967;-80
2022/11/30 01:54:47;;;;;;;5.20;4.60;;;;;;;8.17;77.62;99768.09;5050908;28;20025;-80
2022/11/30 01:57:26;;;;;;;8.38;5.32;;;;;;;8.13;77.76;99777.28;5051465;28;20509;-80
2022/11/30 01:59:55;;;;;;;21.65;5.50;;;;;;;8.18;77.20;99789.00;5054895;28;20021;-79
2022/11/30 02:02:29;;;;;;;4.93;4.13;;;;;;;7.83;77.34;99726.00;5036951;28;20048;-79
2022/11/30 02:04:55;;;;;;;5.00;4.35;;;;;;;7.63;77.10;99710.44;5036839;28;20017;-80
2022/11/30 02:07:20;;;;;;;6.45;5.45;;;;;;;8.09;77.41;99787.28;5054735;28;20107;-79
2022/11/30 02:09:46;;;;;;;6.82;5.38;;;;;;;8.07;77.51;99797.13;5054516;28;20080;-80
2022/11/30 02:12:24;;;;;;;5.97;5.15;;;;;;;8.26;77.63;99806.63;5036803;28;20589;-80
2022/11/30 02:14:57;;;;;;;6.85;5.13;;;;;;;7.28;77.38;99647.47;5036700;28;20557;-80
2022/11/30 02:17:40;;;;;;;7.97;5.18;;;;;;;8.44;77.36;99835.53;5054374;28;20120;-79
2022/11/30 02:20:27;;;;;;;5.82;5.22;;;;;;;8.43;77.40;99839.13;5054331;28;20029;-79
2022/11/30 02:23:09;;;;;;;7.05;4.60;;;;;;;8.10;77.39;99783.66;5054439;28;20087;-79
2022/11/30 02:25:53;;;;;;;5.97;5.38;;;;;;;8.40;77.09;99829.75;5054293;28;20083;-79
2022/11/30 02:28:39;;;;;;;6.38;5.78;;;;;;;8.38;77.45;99844.03;5036460;28;20066;-80
2022/11/30 02:31:10;;;;;;;7.50;5.68;;;;;;;7.87;77.44;99741.31;5054401;28;20036;-79
2022/11/30 02:33:37;;;;;;;5.38;4.78;;;;;;;7.78;76.96;99720.38;5054249;28;20452;-79
2022/11/30 02:36:07;;;;;;;6.30;5.18;;;;;;;8.04;76.85;99776.41;5054316;28;20410;-79
2022/11/30 02:38:33;;;;;;;5.45;4.95;;;;;;;8.10;77.23;99773.16;5039236;28;20055;-82
2022/11/30 02:40:58;;;;;;;6.10;5.38;;;;;;;7.64;77.05;99709.47;5079633;28;20029;-80
2022/11/30 02:43:26;;;;;;;7.40;5.78;;;;;;;8.45;77.25;99853.78;5047385;28;20017;-80
2022/11/30 02:46:24;;;;;;;6.57;5.03;;;;;;;8.44;77.26;99831.09;5037390;28;20033;-80
2022/11/30 02:49:00;;;;;;;6.15;5.40;;;;;;;8.15;76.59;99804.22;5055056;28;20033;-79
2022/11/30 02:51:29;;;;;;;6.60;5.90;;;;;;;8.22;76.93;99808.75;5054227;28;20029;-80
2022/11/30 02:53:55;;;;;;;6.95;5.38;;;;;;;7.44;76.69;99697.53;5054100;28;20031;-79
2022/11/30 02:56:21;;;;;;;6.38;5.68;;;;;;;8.37;77.21;99853.75;5053832;28;20096;-79
2022/11/30 02:58:47;;;;;;;5.68;4.97;;;;;;;8.07;76.80;99804.19;5035852;28;20037;-79
2022/11/30 03:01:12;;;;;;;6.90;6.20;;;;;;;7.79;76.87;99751.78;5052862;28;20028;-80
2022/11/30 03:03:38;;;;;;;7.90;6.07;;;;;;;6.12;76.77;99482.44;5053827;28;20029;-79
2022/11/30 03:06:03;;;;;;;5.82;5.15;;;;;;;7.89;76.83;99793.72;5053563;28;20025;-80
2022/11/30 03:08:28;;;;;;;6.35;5.28;;;;;;;7.67;77.15;99744.31;5052392;28;20052;-79
2022/11/30 03:10:54;;;;;;;6.75;5.55;;;;;;;8.15;76.69;99822.66;5053785;28;20029;-79
2022/11/30 03:13:19;;;;;;;7.20;5.97;;;;;;;7.56;76.73;99727.81;5053744;28;20032;-80
2022/11/30 03:15:45;;;;;;;6.15;5.55;;;;;;;7.71;76.84;99746.47;5053781;28;20025;-79
2022/11/30 03:18:10;;;;;;;6.75;6.07;;;;;;;8.02;76.92;99803.84;5035478;28;20567;-79
2022/11/30 03:20:41;;;;;;;7.22;5.55;;;;;;;7.80;76.51;99773.63;5053340;28;20405;-79
2022/11/30 03:23:06;;;;;;;7.45;6.38;;;;;;;8.39;76.78;99854.41;5053348;28;20194;-79
2022/11/30 03:25:32;;;;;;;6.90;6.20;;;;;;;7.98;76.65;99821.72;5035375;28;20025;-79
2022/11/30 03:28:00;;;;;;;7.13;5.45;;;;;;;8.10;76.80;99828.38;5053329;28;20029;-80
2022/11/30 03:30:25;;;;;;;7.47;6.47;;;;;;;8.14;76.38;99826.25;5053234;28;20053;-80
2022/11/30 03:32:51;;;;;;;7.90;5.80;;;;;;;7.98;76.99;99801.50;5053122;28;20096;-80
2022/11/30 03:35:16;;;;;;;7.82;5.63;;;;;;;7.91;76.64;99795.22;5052962;28;20509;-79
2022/11/30 03:37:42;;;;;;;7.57;6.63;;;;;;;7.63;76.87;99763.00;5052999;28;20025;-80
2022/11/30 03:40:08;;;;;;;8.38;6.68;;;;;;;8.01;76.56;99810.06;5052968;28;20115;-80
2022/11/30 03:42:33;;;;;;;9.90;6.15;;;;;;;8.12;76.33;99829.03;5053075;28;20037;-79
2022/11/30 03:44:59;;;;;;;6.10;5.45;;;;;;;8.09;76.18;99812.75;5052821;28;20025;-79
2022/11/30 03:47:24;;;;;;;5.93;4.88;;;;;;;7.90;76.59;99785.69;5052791;28;20020;-79
2022/11/30 03:49:49;;;;;;;7.63;6.10;;;;;;;8.02;76.69;99801.19;5052649;28;20550;-80
2022/11/30 03:52:15;;;;;;;6.72;6.03;;;;;;;8.22;76.31;99886.81;5052519;28;20075;-80
2022/11/30 03:54:40;;;;;;;7.20;6.38;;;;;;;7.39;76.23;99719.94;5052600;28;20108;-80
2022/11/30 03:57:06;;;;;;;6.78;5.90;;;;;;;7.43;76.55;99719.50;5052695;28;20025;-79
2022/11/30 03:59:31;;;;;;;8.02;5.57;;;;;;;7.39;76.30;99715.50;5052792;28;20399;-79
2022/11/30 04:01:56;;;;;;;7.15;6.43;;;;;;;7.53;76.18;99729.94;5052507;28;20059;-79
2022/11/30 04:04:22;;;;;;;6.95;5.63;;;;;;;8.06;76.50;99827.03;5034403;28;20506;-80
2022/11/30 04:06:47;;;;;;;7.22;6.22;;;;;;;7.76;76.07;99772.28;5052273;28;20035;-79
2022/11/30 04:09:12;;;;;;;6.50;5.88;;;;;;;7.37;75.80;99714.84;5051963;28;20051;-79
2022/11/30 04:11:38;;;;;;;7.75;6.47;;;;;;;7.53;76.24;99777.22;5052604;28;20072;-80
2022/11/30 04:14:03;;;;;;;9.68;6.68;;;;;;;8.10;76.51;99835.44;5052328;28;20112;-80
2022/11/30 04:16:29;;;;;;;9.68;5.97;;;;;;;7.67;76.31;99763.53;5034830;28;20040;-80
2022/11/30 04:18:54;;;;;;;6.93;6.25;;;;;;;7.58;76.21;99743.44;5052375;28;20035;-80
2022/11/30 04:21:20;;;;;;;6.53;5.65;;;;;;;7.92;76.59;99812.66;5052390;28;20029;-80
2022/11/30 04:23:45;;;;;;;8.10;5.90;;;;;;;8.24;76.47;99887.50;5034301;28;20025;-80
2022/11/30 04:26:12;;;;;;;7.38;6.00;;;;;;;7.97;76.14;99843.75;5052250;28;20025;-81
2022/11/30 04:28:37;;;;;;;8.35;6.25;;;;;;;7.67;76.11;99783.72;5034612;28;20120;-82
2022/11/30 04:31:03;;;;;;;6.22;5.40;;;;;;;7.80;76.14;99813.06;5052298;28;20104;-81
2022/11/30 04:33:29;;;;;;;7.35;6.32;;;;;;;8.18;75.97;99885.50;5052101;28;20033;-81
2022/11/30 04:35:58;;;;;;;7.85;6.57;;;;;;;7.29;76.05;99739.25;5051844;28;20553;-80
2022/11/30 04:38:24;;;;;;;7.57;5.60;;;;;;;8.17;75.72;99874.09;5051837;28;20033;-80
2022/11/30 04:40:50;;;;;;;6.90;5.32;;;;;;;7.70;75.82;99835.97;5051849;28;20029;-80
2022/11/30 04:43:15;;;;;;;8.52;5.25;;;;;;;7.71;75.82;99827.94;5051985;28;20032;-80
2022/11/30 04:45:42;;;;;;;7.35;5.50;;;;;;;8.19;76.09;99882.72;5034107;28;20409;-80
2022/11/30 04:48:08;;;;;;;8.93;5.57;;;;;;;8.23;76.20;99886.69;5051656;28;20025;-80
2022/11/30 04:50:34;;;;;;;9.00;5.85;;;;;;;8.24;75.76;99874.34;5051742;28;20029;-80
2022/11/30 04:52:59;;;;;;;7.75;5.68;;;;;;;7.40;75.69;99753.13;5051622;28;20025;-80
2022/11/30 04:55:25;;;;;;;7.25;5.25;;;;;;;7.61;76.14;99807.00;5051663;28;20134;-80
2022/11/30 04:57:51;;;;;;;6.32;5.10;;;;;;;7.80;75.96;99829.66;5033505;28;20021;-80
2022/11/30 05:00:18;;;;;;;6.80;5.53;;;;;;;8.18;76.14;99886.31;5051526;28;20040;-80
2022/11/30 05:02:43;;;;;;;7.35;5.85;;;;;;;8.21;75.86;99906.22;5033596;28;20497;-80
2022/11/30 05:05:09;;;;;;;6.57;5.68;;;;;;;8.17;75.47;99887.25;5051404;28;20041;-80
2022/11/30 05:07:35;;;;;;;7.38;6.22;;;;;;;7.73;75.78;99830.41;5033197;28;20024;-80
2022/11/30 05:10:00;;;;;;;6.13;5.10;;;;;;;7.70;75.81;99828.91;5033524;28;20033;-80
2022/11/30 05:12:26;;;;;;;9.45;5.75;;;;;;;7.93;75.51;99866.88;5051095;28;20021;-80
2022/11/30 05:14:51;;;;;;;6.80;5.30;;;;;;;7.98;75.94;99863.78;5033353;28;20508;-80
2022/11/30 05:17:16;;;;;;;9.40;5.53;;;;;;;7.26;75.54;99780.75;5051362;28;20020;-80
2022/11/30 05:19:42;;;;;;;8.23;4.78;;;;;;;7.78;75.09;99838.66;5051358;28;20471;-80
2022/11/30 05:22:07;;;;;;;8.57;5.03;;;;;;;8.02;75.19;99885.34;5051143;28;20082;-80
2022/11/30 05:24:33;;;;;;;7.20;4.97;;;;;;;7.63;75.04;99812.13;5051442;28;20036;-80
2022/11/30 05:26:58;;;;;;;8.05;5.18;;;;;;;8.27;74.94;99931.91;5051144;28;20033;-80
2022/11/30 05:29:24;;;;;;;9.20;5.30;;;;;;;7.46;74.83;99782.25;5051166;28;20089;-81
2022/11/30 05:31:49;;;;;;;6.70;4.88;;;;;;;6.47;74.79;99644.19;5053807;28;20490;-80
2022/11/30 05:34:15;;;;;;;10.40;5.40;;;;;;;7.79;75.22;99883.19;5057725;28;20021;-80
2022/11/30 05:36:40;;;;;;;6.55;4.72;;;;;;;7.67;75.13;99844.16;5057790;28;20028;-80
2022/11/30 05:39:06;;;;;;;8.15;5.88;;;;;;;7.49;75.15;99802.16;5057686;28;20028;-80
2022/11/30 05:41:31;;;;;;;8.95;5.75;;;;;;;7.35;74.85;99766.72;5057807;28;20033;-80
2022/11/30 05:43:57;;;;;;;7.03;4.88;;;;;;;7.63;74.96;99828.69;5057740;28;20033;-80
2022/11/30 05:46:22;;;;;;;8.20;4.82;;;;;;;8.28;74.91;99920.41;5057660;28;20021;-80
2022/11/30 05:48:48;;;;;;;8.65;5.15;;;;;;;7.65;74.43;99824.13;5039685;28;20508;-79
2022/11/30 05:51:17;;;;;;;6.05;5.20;;;;;;;8.00;74.72;99892.56;5057613;28;20059;-80
2022/11/30 05:53:46;;;;;;;7.13;4.68;;;;;;;8.25;74.49;99936.50;5057726;28;20029;-81
2022/11/30 05:56:19;;;;;;;6.55;4.72;;;;;;;7.57;74.14;99823.22;5062957;28;20020;-82
2022/11/30 05:58:45;;;;;;;6.35;4.10;;;;;;;8.24;74.45;99942.75;5059659;28;20060;-82
2022/11/30 06:01:19;;;;;;;6.25;4.43;;;;;;;7.54;74.49;99829.63;5060402;28;20465;-82
2022/11/30 06:03:45;;;;;;;5.97;4.38;;;;;;;7.58;74.24;99840.66;5059802;28;20029;-81
2022/11/30 06:06:10;;;;;;;5.88;4.45;;;;;;;8.13;74.35;99925.38;5094002;28;20033;-81
2022/11/30 06:08:35;;;;;;;7.07;4.40;;;;;;;7.97;74.12;99905.03;5089486;28;20182;-80
2022/11/30 06:11:01;;;;;;;8.10;5.35;;;;;;;7.47;74.11;99814.59;5077545;28;20025;-80
2022/11/30 06:13:27;;;;;;;9.18;6.25;;;;;;;7.63;74.41;99838.38;5077184;28;20028;-80
2022/11/30 06:15:53;;;;;;;8.48;5.50;;;;;;;8.27;74.06;99938.00;5077335;28;20029;-80
2022/11/30 06:18:18;;;;;;;8.48;6.32;;;;;;;7.49;74.13;99852.88;5059453;28;20024;-80
2022/11/30 06:20:45;;;;;;;14.68;7.43;;;;;;;7.59;74.01;99847.56;5059540;28;20444;-80
2022/11/30 06:23:10;;;;;;;14.43;9.10;;;;;;;8.08;74.26;99922.38;5077441;28;20032;-79
2022/11/30 06:25:36;;;;;;;17.08;11.35;;;;;;;7.50;73.69;99836.16;5060138;28;20025;-80
2022/11/30 06:28:01;;;;;;;10.85;6.53;;;;;;;7.42;74.10;99804.53;5073833;28;20028;-80
2022/11/30 06:30:26;;;;;;;19.27;6.18;;;;;;;7.51;73.89;99831.72;5059723;28;20032;-80
2022/11/30 06:32:52;;;;;;;10.05;6.63;;;;;;;7.61;74.14;99856.94;5046367;28;20028;-79
2022/11/30 06:35:18;;;;;;;8.38;5.45;;;;;;;8.16;73.75;99992.63;5072541;28;20024;-79
2022/11/30 06:37:43;;;;;;;7.28;4.82;;;;;;;7.98;73.93;99932.97;5075230;28;20033;-79
2022/11/30 06:40:11;;;;;;;5.80;5.15;;;;;;;7.74;73.93;99903.03;5076221;28;20086;-79
2022/11/30 06:42:37;;;;;;;10.32;6.60;;;;;;;7.46;73.39;99863.69;5070436;28;20032;-79
2022/11/30 06:45:05;;;;;;;11.38;7.47;;;;;;;7.46;73.66;99858.44;5073277;28;20024;-79
2022/11/30 06:47:30;;;;;;;9.38;7.68;;;;;;;7.98;73.42;99961.06;5071238;28;20024;-79
2022/11/30 06:49:56;;;;;;;9.07;6.60;;;;;;;7.88;74.04;99932.25;5074226;28;20402;-79
2022/11/30 06:52:21;;;;;;;8.07;5.95;;;;;;;7.60;73.71;99892.06;5074052;28;20036;-79
2022/11/30 06:54:47;;;;;;;9.38;6.78;;;;;;;7.37;73.64;99843.56;5074167;28;20066;-79
2022/11/30 06:57:12;;;;;;;10.30;7.15;;;;;;;7.69;73.95;99900.03;5055321;28;20119;-80
2022/11/30 06:59:45;;;;;;;7.82;6.50;;;;;;;6.78;73.68;99757.47;5072315;28;20448;-79
2022/11/30 07:02:12;;;;;;;14.52;7.85;;;;;;;8.10;73.83;99974.81;5073320;28;20040;-79
2022/11/30 07:04:37;;;;;;;8.98;6.55;;;;;;;6.67;73.82;99742.75;5054058;28;20527;-79
2022/11/30 07:07:03;;;;;;;7.95;6.38;;;;;;;8.09;73.95;99971.34;5060590;28;20048;-79
2022/11/30 07:09:31;;;;;;;10.45;6.70;;;;;;;7.22;73.66;99834.53;5077778;28;20440;-79
2022/11/30 07:11:56;;;;;;;11.82;7.60;;;;;;;7.81;74.31;99933.00;5054704;28;20039;-79
2022/11/30 07:14:22;;;;;;;7.70;6.88;;;;;;;8.12;74.08;99963.16;5051502;28;20029;-78
2022/11/30 07:16:47;;;;;;;11.07;7.35;;;;;;;7.84;74.14;99925.63;5066321;28;20017;-80
2022/11/30 07:19:12;;;;;;;11.68;8.35;;;;;;;8.05;74.10;99962.13;5063208;28;20107;-79
2022/11/30 07:21:38;;;;;;;7.35;6.13;;;;;;;7.38;73.76;99878.53;5076220;28;20515;-79
2022/11/30 07:26:47;;;;;;;9.48;7.45;;;;;;;7.94;74.08;99943.94;5072765;28;20035;-79
2022/11/30 07:29:13;;;;;;;11.02;7.55;;;;;;;7.36;74.05;99852.41;5071473;28;20449;-79
2022/11/30 07:31:38;;;;;;;8.10;7.00;;;;;;;6.49;74.00;99705.19;5060714;28;20112;-80
2022/11/30 07:34:06;;;;;;;6.47;5.70;;;;;;;7.70;74.00;99905.13;5065707;28;20032;-79
2022/11/30 07:36:33;;;;;;;7.53;5.55;;;;;;;8.10;73.71;99975.66;5072887;28;20016;-79
2022/11/30 07:38:59;;;;;;;8.50;6.00;;;;;;;7.36;73.83;99859.47;5073102;28;20078;-80
2022/11/30 07:41:25;;;;;;;6.78;6.07;;;;;;;7.98;73.76;99953.19;5090046;28;20032;-80
2022/11/30 07:43:50;;;;;;;8.13;6.80;;;;;;;7.41;73.83;99859.84;5092978;28;20023;-79
2022/11/30 07:46:16;;;;;;;9.55;6.05;;;;;;;7.89;73.41;99959.34;5092931;28;20031;-79
2022/11/30 07:48:43;;;;;;;7.10;6.40;;;;;;;8.15;73.73;99993.59;5072169;28;20037;-80
2022/11/30 07:51:14;;;;;;;8.45;6.47;;;;;;;8.13;73.29;99991.13;5068331;28;20048;-79
2022/11/30 07:53:40;;;;;;;;;;;;;;;8.01;73.53;99992.31;5045691;28;20463;-80
2022/11/30 07:56:11;;;;;;;9.65;7.20;;;;;;;8.09;73.37;99991.56;5067004;28;19919;-80
2022/11/30 07:58:37;;;;;;;8.25;7.40;;;;;;;8.11;73.32;99992.25;5046404;28;20028;-79
2022/11/30 08:01:05;;;;;;;9.70;7.65;;;;;;;8.13;73.61;99996.38;5073664;28;20521;-79
2022/11/30 08:03:31;;;;;;;11.10;7.88;;;;;;;7.94;73.36;99980.75;5056277;28;20012;-79
2022/11/30 08:06:06;;;;;;;9.63;7.78;;;;;;;8.15;73.15;99994.44;5045331;28;20032;-79
2022/11/30 08:08:33;;;;;;;12.45;8.32;;;;;;;7.95;73.63;99974.53;5063352;28;20063;-79
2022/11/30 08:11:00;;;;;;;11.30;8.20;;;;;;;8.21;73.16;100003.53;5064491;28;20055;-78
2022/11/30 08:13:25;;;;;;;11.15;9.18;;;;;;;8.00;73.10;99971.44;5046582;28;20060;-79
2022/11/30 08:15:51;;;;;;;10.60;7.95;;;;;;;7.08;73.25;99827.19;5065314;28;20080;-80
2022/11/30 08:18:17;;;;;;;11.20;8.55;;;;;;;7.65;73.22;99920.53;5064592;28;20402;-80
2022/11/30 08:20:42;;;;;;;11.70;9.38;;;;;;;7.54;73.58;99897.09;5069225;28;20040;-80
2022/11/30 08:23:08;;;;;;;12.10;10.13;;;;;;;7.36;73.57;99870.78;5064816;28;20047;-80
2022/11/30 08:25:34;;;;;;;10.60;9.23;;;;;;;8.18;73.50;100001.22;5054716;28;20028;-80
2022/11/30 08:27:59;;;;;;;8.55;7.28;;;;;;;7.99;73.12;99989.03;5071732;28;20028;-80
2022/11/30 08:30:25;;;;;;;12.45;10.30;;;;;;;7.20;73.08;99854.88;5060748;28;20116;-80
2022/11/30 08:32:50;;;;;;;10.98;9.88;;;;;;;7.79;73.20;99954.16;5068910;28;20055;-80
2022/11/30 08:35:16;;;;;;;8.45;6.90;;;;;;;7.71;73.18;99942.75;5069689;28;20052;-79
2022/11/30 08:37:41;;;;;;;11.05;8.02;;;;;;;7.78;73.06;99962.22;5070334;28;20424;-79
2022/11/30 08:40:07;;;;;;;11.00;8.82;;;;;;;7.52;72.86;99899.88;5052206;28;20021;-79
2022/11/30 08:42:33;;;;;;;13.63;11.02;;;;;;;8.01;73.03;99975.72;5071377;28;20104;-80
2022/11/30 08:44:58;;;;;;;11.45;10.25;;;;;;;8.16;72.89;100005.78;5071445;28;20111;-79
2022/11/30 08:47:23;;;;;;;12.30;9.55;;;;;;;7.27;73.00;99854.13;5053317;28;20504;-79
2022/11/30 08:49:49;;;;;;;12.18;10.43;;;;;;;7.41;72.47;99907.13;5053245;28;20027;-79
2022/11/30 08:52:14;;;;;;;13.05;9.80;;;;;;;7.79;72.86;99940.19;5068740;28;20032;-80
2022/11/30 08:54:44;;;;;;;11.25;9.68;;;;;;;7.87;73.04;99950.78;5041562;28;20047;-80
2022/11/30 08:57:10;;;;;;;13.02;9.70;;;;;;;6.51;72.55;99726.84;5052959;28;20477;-80
2022/11/30 08:59:36;;;;;;;11.45;9.18;;;;;;;7.79;73.25;99929.69;5070345;28;20116;-79
2022/11/30 09:02:01;;;;;;;12.10;9.52;;;;;;;7.34;73.13;99851.72;5066710;28;20115;-79
2022/11/30 09:04:27;;;;;;;10.18;9.18;;;;;;;7.51;72.97;99886.91;5068929;28;21317;-79
2022/11/30 09:06:52;;;;;;;10.57;8.50;;;;;;;7.75;73.22;99923.91;5052343;28;20069;-79
2022/11/30 09:09:18;;;;;;;10.90;8.73;;;;;;;7.94;73.09;99955.28;5073375;28;20055;-79
2022/11/30 09:11:43;;;;;;;11.45;8.95;;;;;;;7.62;73.07;99905.88;5075786;28;20128;-79
2022/11/30 09:14:09;;;;;;;13.00;9.13;;;;;;;7.54;73.26;99868.19;5075473;28;20051;-79
2022/11/30 09:16:34;;;;;;;12.70;9.85;;;;;;;8.13;72.84;99956.09;5074468;28;20024;-79
2022/11/30 09:19:00;;;;;;;11.88;9.65;;;;;;;8.10;73.05;99956.41;5090405;28;20035;-81
2022/11/30 09:21:26;;;;;;;10.85;9.25;;;;;;;7.54;73.11;99866.41;5069985;28;20024;-79
2022/11/30 09:23:54;;;;;;;10.23;8.63;;;;;;;8.10;73.24;99951.97;5074334;28;20024;-79
2022/11/30 09:26:22;;;;;;;14.55;10.63;;;;;;;8.09;73.73;99960.00;5059961;28;20091;-79
2022/11/30 09:28:48;;;;;;;14.52;11.23;;;;;;;7.35;73.12;99840.25;5064071;28;20022;-79
2022/11/30 09:31:24;;;;;;;14.00;10.63;;;;;;;8.02;73.63;99943.19;5058510;28;20448;-79
2022/11/30 09:33:50;;;;;;;14.30;11.40;;;;;;;7.80;73.28;99923.44;5051244;28;20037;-79
2022/11/30 09:36:18;;;;;;;20.90;15.93;;;;;;;8.16;73.44;99947.91;5068498;28;20099;-79
2022/11/30 09:38:45;;;;;;;20.40;16.35;;;;;;;8.16;73.57;99959.25;5084786;28;20033;-79
2022/11/30 09:41:26;;;;;;;14.13;10.88;;;;;;;8.17;73.13;99947.75;5055535;28;20020;-79
2022/11/30 09:44:01;;;;;;;12.15;10.20;;;;;;;8.18;72.96;99945.97;5088847;28;20032;-79
2022/11/30 09:46:39;;;;;;;10.98;9.25;;;;;;;7.60;73.00;99857.91;5072733;28;20043;-79
2022/11/30 09:49:23;;;;;;;10.13;8.45;;;;;;;6.91;72.86;99740.41;5052466;28;20086;-79
2022/11/30 09:51:51;;;;;;;12.40;10.23;;;;;;;8.07;72.94;99925.97;5066338;28;20034;-79
2022/11/30 09:54:40;;;;;;;11.88;9.15;;;;;;;8.23;73.08;99954.25;5091183;28;20020;-79
2022/11/30 09:57:14;;;;;;;12.85;10.93;;;;;;;8.22;72.84;99948.16;5052973;28;20051;-78
2022/11/30 09:59:47;;;;;;;14.95;12.77;;;;;;;7.77;73.28;99879.91;5073455;28;20051;-79
2022/11/30 10:02:15;;;;;;;15.45;13.48;;;;;;;7.62;73.24;99836.75;5082570;28;20103;-79
2022/11/30 10:04:41;;;;;;;16.75;14.35;;;;;;;7.91;73.08;99873.28;5045282;28;20053;-80
2022/11/30 10:07:40;;;;;;;11.95;9.63;;;;;;;8.42;72.93;99953.25;5078357;28;20035;-79
2022/11/30 10:10:38;;;;;;;11.13;9.65;;;;;;;8.44;72.87;99946.03;5031752;28;20048;-79
2022/11/30 10:13:45;;;;;;;11.35;8.68;;;;;;;8.47;72.98;99943.09;5030323;28;20418;-79
2022/11/30 10:16:45;;;;;;;11.50;9.25;;;;;;;8.49;72.52;99952.47;5032638;28;20041;-81
2022/11/30 10:19:30;;;;;;;13.13;9.73;;;;;;;8.42;72.50;99948.00;5022573;28;20025;-80
2022/11/30 10:22:08;;;;;;;9.25;7.18;;;;;;;8.40;72.46;99939.44;5051960;28;20028;-79
2022/11/30 10:25:22;;;;;;;7.85;6.63;;;;;;;7.77;72.23;99834.38;5057612;28;20050;-79
2022/11/30 10:28:20;;;;;;;9.45;7.70;;;;;;;8.51;72.17;99949.69;5033217;28;20128;-80
2022/11/30 10:30:48;;;;;;;9.15;8.20;;;;;;;8.42;72.46;99945.38;5024053;28;20366;-79
2022/11/30 10:33:23;;;;;;;11.90;10.55;;;;;;;8.52;72.65;99949.53;5054167;28;20029;-79
2022/11/30 10:35:55;;;;;;;12.65;10.98;;;;;;;8.22;72.69;99908.69;5028456;28;20522;-79
2022/11/30 10:38:27;;;;;;;10.82;9.13;;;;;;;7.67;72.69;99815.25;5033400;28;20545;-80
2022/11/30 10:41:03;;;;;;;11.90;9.95;;;;;;;8.22;72.23;99913.97;5054458;28;20110;-79
2022/11/30 10:43:31;;;;;;;11.98;9.82;;;;;;;7.93;72.10;99866.06;5026930;28;20041;-80
2022/11/30 10:45:57;;;;;;;14.35;12.82;;;;;;;8.33;72.08;99904.16;5047042;28;20033;-79
2022/11/30 10:48:57;;;;;;;18.33;16.42;;;;;;;8.23;72.17;99904.25;5053944;28;20063;-79
2022/11/30 10:51:24;;;;;;;18.20;16.40;;;;;;;8.27;71.90;99893.28;5038954;28;20564;-80
2022/11/30 10:53:49;;;;;;;16.90;15.15;;;;;;;8.47;71.81;99914.16;5034529;28;20025;-79
2022/11/30 10:56:15;;;;;;;11.65;10.45;;;;;;;8.54;71.84;99936.22;5032748;28;20032;-79
2022/11/30 10:58:49;;;;;;;11.80;10.60;;;;;;;8.57;71.95;99944.63;5024018;28;20032;-80
2022/11/30 11:01:35;;;;;;;13.45;10.95;;;;;;;8.26;72.10;99922.38;5048830;28;20043;-80
2022/11/30 11:04:17;;;;;;;13.82;11.43;;;;;;;8.53;72.10;99950.38;5048854;28;20056;-80
2022/11/30 11:06:55;;;;;;;11.07;9.27;;;;;;;8.52;72.11;99940.81;5052200;28;20090;-79
2022/11/30 11:09:27;;;;;;;9.82;8.57;;;;;;;8.54;72.01;99946.75;5066072;28;20103;-80
2022/11/30 11:12:26;;;;;;;11.25;10.05;;;;;;;8.54;71.88;99944.94;5073435;28;20032;-80
2022/11/30 11:15:17;;;;;;;11.75;9.00;;;;;;;8.52;72.04;99948.72;5050943;28;20028;-80
2022/11/30 11:17:42;;;;;;;10.32;8.18;;;;;;;8.10;72.39;99894.13;5065269;28;20552;-80
2022/11/30 11:20:34;;;;;;;8.57;7.68;;;;;;;8.53;72.17;99953.00;5072479;28;20024;-80
2022/11/30 11:23:01;;;;;;;11.50;9.77;;;;;;;7.90;72.10;99864.56;5035799;28;20498;-81
2022/11/30 11:25:33;;;;;;;12.68;9.30;;;;;;;8.27;71.88;99901.16;5053412;28;20037;-79
2022/11/30 11:28:23;;;;;;;12.23;10.38;;;;;;;8.23;72.40;99907.72;5053251;28;20456;-80
2022/11/30 11:30:52;;;;;;;11.88;9.68;;;;;;;8.10;72.71;99894.13;5051110;28;20040;-80
2022/11/30 11:33:28;;;;;;;11.60;8.30;;;;;;;8.45;72.75;99937.97;5053134;28;20513;-79
2022/11/30 11:36:06;;;;;;;7.85;7.03;;;;;;;8.48;72.85;99934.22;5059227;28;20028;-80
2022/11/30 11:38:41;;;;;;;9.68;8.30;;;;;;;8.52;72.80;99935.56;5073225;28;20059;-79
2022/11/30 11:41:23;;;;;;;15.30;9.05;;;;;;;8.52;72.73;99936.38;5066289;28;20040;-80
2022/11/30 11:44:05;;;;;;;13.82;9.55;;;;;;;8.53;73.13;99932.78;5054116;28;20409;-80
2022/11/30 11:46:33;;;;;;;13.95;10.05;;;;;;;8.54;72.91;99929.16;5071744;28;20028;-79
2022/11/30 11:49:04;;;;;;;10.70;8.65;;;;;;;8.39;73.05;99911.47;5072798;28;20032;-80